Time;durP1;ratioP1;P1;durP2;ratioP2;P2;SDS_P1;SDS_P2;PMS_P1;PMS_P2;Temp;Humidity;BMP_temperature;BMP_pressure;BME280_temperature;BME280_humidity;BME280_pressure;Samples;Min_cycle;Max_cycle;Signal;HPM_P1;HPM_P2
2021/04/01 00:00:15;;;;;;;42.33;22.33;;;;;;;13.74;48.94;101679.19;10215840;28;20057;-69
2021/04/01 00:05:11;;;;;;;39.42;23.38;;;;;;;13.72;49.46;101686.13;10218190;28;20129;-69
2021/04/01 00:10:11;;;;;;;39.10;21.20;;;;;;;13.75;49.57;101682.75;10218896;28;20060;-69
2021/04/01 00:15:09;;;;;;;40.67;22.58;;;;;;;13.73;49.90;101676.75;10213481;28;20060;-69
2021/04/01 00:20:08;;;;;;;43.72;23.48;;;;;;;13.72;48.89;101675.16;10216799;28;20049;-68
2021/04/01 00:25:05;;;;;;;38.15;22.70;;;;;;;13.59;49.29;101666.66;10211682;28;20053;-67
2021/04/01 00:30:04;;;;;;;41.63;22.15;;;;;;;13.60;49.54;101661.97;10204820;28;20054;-68
2021/04/01 00:35:01;;;;;;;33.47;20.67;;;;;;;13.58;51.54;101662.31;10214004;28;20049;-68
2021/04/01 00:39:58;;;;;;;41.58;21.58;;;;;;;13.59;50.70;101672.16;10222447;28;20061;-70
2021/04/01 00:45:05;;;;;;;37.20;22.23;;;;;;;13.59;51.85;101666.66;10210106;28;20041;-69
2021/04/01 00:50:04;;;;;;;37.85;22.13;;;;;;;13.60;51.06;101661.97;10205332;28;20498;-69
2021/04/01 00:55:00;;;;;;;38.72;23.30;;;;;;;13.57;50.98;101652.41;10216103;28;20115;-68
2021/04/01 00:59:56;;;;;;;37.80;21.73;;;;;;;13.57;51.51;101646.91;10224090;28;20534;-67
2021/04/01 01:04:53;;;;;;;40.80;22.42;;;;;;;13.61;52.84;101642.44;10209535;28;20087;-69
2021/04/01 01:09:49;;;;;;;39.58;23.95;;;;;;;13.65;51.94;101642.63;10217795;28;20107;-71
2021/04/01 01:14:45;;;;;;;38.42;23.70;;;;;;;13.62;51.72;101648.72;10212835;28;20096;-70
2021/04/01 01:19:50;;;;;;;42.70;23.50;;;;;;;13.57;51.50;101657.91;10222402;28;20480;-67
2021/04/01 01:24:47;;;;;;;48.00;25.17;;;;;;;13.71;49.04;101651.53;10209298;28;20084;-66
2021/04/01 01:29:50;;;;;;;42.40;24.33;;;;;;;13.75;50.96;101647.03;10220718;28;20132;-70
2021/04/01 01:34:47;;;;;;;40.20;24.67;;;;;;;13.74;50.46;101645.38;10212713;28;20049;-69
2021/04/01 01:39:43;;;;;;;46.38;25.40;;;;;;;13.73;50.83;101643.78;10216027;28;20086;-68
2021/04/01 01:44:39;;;;;;;46.03;25.83;;;;;;;13.70;50.07;101638.94;10211262;28;20172;-68
2021/04/01 01:49:40;;;;;;;55.53;32.17;;;;;;;13.72;47.25;101642.97;10208629;28;20069;-68
2021/04/01 01:54:36;;;;;;;56.95;31.48;;;;;;;13.64;47.17;101640.97;10204601;28;20041;-68
2021/04/01 01:59:32;;;;;;;49.72;27.95;;;;;;;13.63;48.96;101626.44;10212616;28;20057;-68
2021/04/01 02:04:28;;;;;;;49.22;28.35;;;;;;;13.62;51.22;101630.31;10211947;28;20038;-68
2021/04/01 02:09:24;;;;;;;49.13;27.70;;;;;;;13.64;50.85;101632.72;10206340;28;20045;-66
2021/04/01 02:14:20;;;;;;;59.55;34.95;;;;;;;13.64;47.24;101636.28;10205404;28;20307;-66
2021/04/01 02:19:16;;;;;;;63.05;34.75;;;;;;;13.65;46.98;101632.44;10212834;28;20510;-68
2021/04/01 02:24:12;;;;;;;64.93;37.00;;;;;;;13.67;47.51;101651.34;10221657;28;20049;-68
2021/04/01 02:29:08;;;;;;;61.30;35.83;;;;;;;13.63;47.63;101651.16;10192102;28;20047;-68
2021/04/01 02:34:04;;;;;;;60.67;35.88;;;;;;;13.59;47.44;101643.88;10203044;28;20041;-67
2021/04/01 02:39:00;;;;;;;61.20;35.92;;;;;;;13.57;47.84;101630.44;10217048;28;20568;-68
2021/04/01 02:43:56;;;;;;;57.90;34.05;;;;;;;13.66;48.04;101634.03;10208328;28;20057;-69
2021/04/01 02:48:52;;;;;;;50.45;32.45;;;;;;;13.46;50.62;101623.63;10225358;28;20057;-68
2021/04/01 02:53:48;;;;;;;52.13;31.85;;;;;;;13.56;50.10;101628.81;10217165;28;20049;-70
2021/04/01 02:58:45;;;;;;;54.95;32.95;;;;;;;13.62;48.90;101622.09;10210273;28;20523;-69
2021/04/01 03:03:46;;;;;;;55.92;34.13;;;;;;;13.63;49.35;101623.69;10211895;28;20110;-68
2021/04/01 03:08:42;;;;;;;55.17;31.52;;;;;;;13.59;49.85;101627.38;10213791;28;20427;-67
2021/04/01 03:13:39;;;;;;;57.20;33.22;;;;;;;13.58;49.54;101626.56;10211657;28;20051;-68
2021/04/01 03:18:35;;;;;;;58.50;36.08;;;;;;;13.51;48.94;101645.47;10217898;28;20306;-67
2021/04/01 03:23:31;;;;;;;60.67;36.70;;;;;;;13.50;48.25;101640.25;10216838;28;20042;-69
2021/04/01 03:28:27;;;;;;;62.72;35.20;;;;;;;13.17;47.12;101622.09;10217230;28;20697;-68
2021/04/01 03:33:24;;;;;;;59.60;34.38;;;;;;;13.25;47.93;101602.16;10210694;28;20051;-68
2021/04/01 03:38:20;;;;;;;59.60;35.25;;;;;;;13.22;48.96;101618.44;10207664;28;20063;-68
2021/04/01 03:43:16;;;;;;;57.70;32.92;;;;;;;13.14;49.11;101606.28;10221983;28;20045;-69
2021/04/01 03:48:12;;;;;;;59.55;34.58;;;;;;;13.14;48.33;101611.75;10218326;28;20053;-68
2021/04/01 03:53:08;;;;;;;63.20;37.80;;;;;;;13.19;48.46;101608.06;10219080;28;20108;-67
2021/04/01 04:13:49;;;;;;;61.08;33.90;;;;;;;12.63;46.85;101596.53;10218794;28;20115;-68
2021/04/01 04:18:46;;;;;;;62.25;37.45;;;;;;;12.62;46.88;101606.72;10210942;28;20060;-69
2021/04/01 04:23:46;;;;;;;70.47;39.50;;;;;;;12.59;46.73;101612.78;10206156;28;20076;-68
2021/04/01 04:28:42;;;;;;;74.03;39.80;;;;;;;12.59;46.86;101615.53;10206033;28;20100;-68
2021/04/01 04:33:39;;;;;;;61.45;35.20;;;;;;;12.60;47.06;101603.47;10210846;28;20078;-68
2021/04/01 04:38:36;;;;;;;59.45;34.60;;;;;;;12.63;47.87;101591.84;10202370;28;20076;-69
2021/04/01 04:43:34;;;;;;;62.15;35.78;;;;;;;12.67;46.46;101592.06;10213528;28;20089;-69
2021/04/01 04:48:31;;;;;;;63.95;37.63;;;;;;;12.62;46.53;101590.25;10203073;28;20100;-69
2021/04/01 04:53:27;;;;;;;69.43;40.90;;;;;;;12.59;46.39;101601.00;10206919;28;20754;-69
2021/04/01 04:58:34;;;;;;;69.03;40.08;;;;;;;12.54;46.45;101587.41;10214822;28;20064;-69
2021/04/01 05:08:46;;;;;;;72.85;40.20;;;;;;;12.29;47.11;101597.84;10226096;28;20041;-68
2021/04/01 05:13:45;;;;;;;69.30;38.25;;;;;;;12.19;47.68;101614.53;10231901;28;20750;-69
2021/04/01 05:18:42;;;;;;;78.30;43.42;;;;;;;11.96;47.66;101617.16;10220537;28;20713;-68
2021/04/01 05:23:42;;;;;;;65.47;37.88;;;;;;;12.05;48.19;101609.06;10213185;28;20049;-69
2021/04/01 05:28:38;;;;;;;69.78;40.80;;;;;;;12.07;48.49;101605.97;10217539;28;20494;-69
2021/04/01 05:33:49;;;;;;;65.07;36.90;;;;;;;12.15;47.87;101608.81;10215696;28;20058;-67
2021/04/01 05:38:45;;;;;;;73.13;43.28;;;;;;;12.24;47.95;101611.66;10214615;28;20150;-69
2021/04/01 05:43:45;;;;;;;68.60;38.55;;;;;;;12.22;48.40;101608.41;10220849;28;20557;-68
2021/04/01 05:48:58;;;;;;;68.43;38.47;;;;;;;12.23;48.63;101621.03;10213785;28;20088;-68
2021/04/01 05:59:30;;;;;;;70.43;42.33;;;;;;;12.34;48.46;101619.66;10220741;28;20041;-69
2021/04/01 06:04:38;;;;;;;78.43;42.20;;;;;;;12.22;48.17;101622.13;10220709;28;20045;-69
2021/04/01 06:09:43;;;;;;;72.30;41.35;;;;;;;12.17;48.53;101624.97;10215048;28;20535;-69
2021/04/01 06:15:01;;;;;;;72.90;41.67;;;;;;;12.14;48.11;101636.56;10223655;28;20041;-71
2021/04/01 06:20:05;;;;;;;72.30;42.88;;;;;;;12.17;48.58;101642.22;10220827;28;20485;-70
2021/04/01 06:25:08;;;;;;;79.55;43.65;;;;;;;12.05;48.89;101652.09;10225472;28;20675;-69
2021/04/01 06:30:22;;;;;;;84.75;48.00;;;;;;;11.99;48.90;101649.44;10217089;28;20089;-69
2021/04/01 06:40:17;;;;;;;76.75;43.38;;;;;;;11.98;49.18;101642.34;10218823;28;20425;-67
2021/04/01 06:45:18;;;;;;;82.10;46.28;;;;;;;11.88;49.68;101650.78;10220730;28;20038;-68
2021/04/01 06:50:35;;;;;;;78.90;42.75;;;;;;;11.92;50.29;101662.75;10214486;28;20045;-66
2021/04/01 07:05:47;;;;;;;92.38;49.75;;;;;;;11.48;52.23;101649.56;10218754;28;20064;-67
2021/04/01 07:15:50;;;;;;;89.35;46.70;;;;;;;11.47;52.71;101669.88;10214198;28;20476;-66
2021/04/01 07:21:06;;;;;;;84.47;46.03;;;;;;;11.56;52.48;101655.16;10216318;28;20158;-70
2021/04/01 07:47:07;;;;;;;89.10;50.97;;;;;;;11.77;52.29;101668.50;10219600;28;20423;-69
2021/04/01 07:52:07;;;;;;;90.72;51.00;;;;;;;12.07;52.95;101677.25;10219364;28;20053;-69
2021/04/01 07:57:19;;;;;;;82.22;47.58;;;;;;;11.98;53.48;101686.19;10216588;28;20099;-69
2021/04/01 08:07:21;;;;;;;76.45;43.72;;;;;;;11.95;55.43;101702.44;10215725;28;20042;-69
2021/04/01 08:12:30;;;;;;;85.75;46.28;;;;;;;11.86;56.94;101707.78;10211451;28;20050;-68
2021/04/01 08:17:40;;;;;;;82.05;45.63;;;;;;;11.71;58.20;101713.53;10213712;28;20045;-66
2021/04/01 08:22:43;;;;;;;65.55;36.92;;;;;;;11.54;57.62;101720.38;10215627;28;20554;-66
2021/04/01 08:28:17;;;;;;;65.70;37.05;;;;;;;11.29;58.26;101731.75;10219078;28;20055;-67
2021/04/01 08:39:20;;;;;;;61.08;35.47;;;;;;;11.71;57.88;101739.00;10211142;28;20060;-69
2021/04/01 08:44:52;;;;;;;61.40;36.17;;;;;;;11.80;57.86;101744.59;10227440;28;20049;-69
2021/04/01 08:55:57;;;;;;;65.47;35.00;;;;;;;12.08;57.43;101755.66;10225222;28;20566;-69
2021/04/01 09:01:13;;;;;;;55.33;34.60;;;;;;;12.18;57.58;101777.38;10219542;28;20677;-69
2021/04/01 09:06:11;;;;;;;60.03;35.65;;;;;;;11.90;57.88;101782.00;10213132;28;20041;-69
2021/04/01 09:11:09;;;;;;;43.88;25.92;;;;;;;12.09;57.65;101781.94;10220186;28;20050;-69
2021/04/01 09:16:32;;;;;;;38.05;22.95;;;;;;;12.26;58.14;101773.94;10220067;28;20053;-69
2021/04/01 09:21:33;;;;;;;35.28;20.55;;;;;;;12.30;58.12;101774.97;10216283;28;20745;-69
2021/04/01 09:26:29;;;;;;;35.22;20.00;;;;;;;12.43;58.21;101778.81;10217812;28;20578;-70
2021/04/01 09:31:32;;;;;;;34.20;19.88;;;;;;;12.55;57.87;101781.88;10220247;28;20318;-66
2021/04/01 09:36:38;;;;;;;30.33;18.17;;;;;;;12.75;57.50;101786.13;10207317;28;20045;-66
2021/04/01 09:41:35;;;;;;;26.85;15.05;;;;;;;12.74;57.57;101795.50;10212746;28;20049;-66
2021/04/01 09:46:32;;;;;;;22.67;13.30;;;;;;;12.63;57.63;101794.06;10220590;28;20049;-67
2021/04/01 09:51:30;;;;;;;22.45;12.15;;;;;;;12.88;56.91;101789.16;10210372;28;20433;-66
2021/04/01 09:56:31;;;;;;;24.05;11.35;;;;;;;13.18;56.25;101815.97;10203727;28;20065;-66
2021/04/01 10:01:35;;;;;;;16.20;9.23;;;;;;;12.84;56.35;101811.75;10204492;28;20034;-67
2021/04/01 10:06:46;;;;;;;24.50;10.13;;;;;;;12.63;56.77;101821.50;10211554;28;20037;-67
2021/04/01 10:11:43;;;;;;;20.02;8.50;;;;;;;12.80;56.44;101821.69;10208949;28;20129;-67
2021/04/01 10:16:57;;;;;;;18.58;9.90;;;;;;;12.67;57.75;101839.00;10215661;28;20049;-66
2021/04/01 10:21:53;;;;;;;;;;;;;;;12.08;59.97;101851.59;10219424;28;20080;-66
2021/04/01 10:27:03;;;;;;;14.00;6.57;;;;;;;11.67;61.34;101866.72;10211188;28;19961;-65
2021/04/01 10:32:02;;;;;;;15.48;8.02;;;;;;;11.13;62.33;101892.66;10207900;28;20037;-65
2021/04/01 10:37:06;;;;;;;17.17;7.68;;;;;;;10.87;63.17;101886.69;10221568;28;20496;-64
2021/04/01 10:42:05;;;;;;;13.68;6.72;;;;;;;10.90;63.11;101886.91;10219725;28;20068;-65
2021/04/01 10:47:04;;;;;;;13.93;6.53;;;;;;;11.18;62.02;101883.56;10222285;28;20574;-64
2021/04/01 10:52:05;;;;;;;9.93;5.57;;;;;;;11.27;61.42;101900.97;10221252;28;20037;-65
2021/04/01 10:57:03;;;;;;;10.73;4.35;;;;;;;10.98;62.54;101910.09;10214427;28;20049;-64
2021/04/01 11:02:02;;;;;;;10.10;4.53;;;;;;;10.88;62.56;101904.72;10221451;28;20049;-64
2021/04/01 11:07:02;;;;;;;9.35;3.28;;;;;;;11.01;60.96;101917.72;10222151;28;20053;-68
2021/04/01 11:16:59;;;;;;;6.63;2.92;;;;;;;10.61;61.65;101922.53;10221212;28;20053;-66
2021/04/01 11:22:01;;;;;;;7.22;3.17;;;;;;;10.78;62.51;101924.00;10215578;28;20042;-67
2021/04/01 11:27:06;;;;;;;7.53;3.40;;;;;;;10.98;62.57;101922.94;10218454;28;20099;-66
2021/04/01 11:32:25;;;;;;;8.07;3.58;;;;;;;11.33;61.56;101927.19;10219736;28;20038;-67
2021/04/01 11:37:29;;;;;;;6.22;3.10;;;;;;;11.48;61.43;101929.72;10219625;28;20682;-66
2021/04/01 11:42:26;;;;;;;8.43;3.50;;;;;;;11.50;60.28;101938.47;10217550;28;20041;-67
2021/04/01 11:47:26;;;;;;;5.50;2.78;;;;;;;12.55;57.07;101923.72;10210102;28;20057;-66
2021/04/01 11:52:23;;;;;;;5.57;2.72;;;;;;;13.03;54.70;101926.13;10212195;28;20130;-67
2021/04/01 11:57:32;;;;;;;5.82;2.60;;;;;;;14.30;49.55;101916.16;10212836;28;20057;-65
2021/04/01 12:02:30;;;;;;;4.88;1.90;;;;;;;15.14;48.49;101912.50;10216092;28;20465;-65
2021/04/01 12:07:28;;;;;;;5.38;2.60;;;;;;;14.07;50.37;101932.66;10216789;28;20077;-67
2021/04/01 12:12:32;;;;;;;5.43;2.70;;;;;;;12.41;54.70;101940.13;10213274;28;20042;-66
2021/04/01 12:17:41;;;;;;;5.85;2.22;;;;;;;14.20;52.43;101936.47;10214245;28;20049;-64
2021/04/01 12:22:41;;;;;;;6.35;2.63;;;;;;;13.21;49.91;101936.19;10206968;28;20119;-67
2021/04/01 12:27:37;;;;;;;4.10;1.90;;;;;;;13.15;49.25;101940.13;10213908;28;20100;-66
2021/04/01 12:32:35;;;;;;;4.07;1.90;;;;;;;12.61;50.93;101941.72;10218048;28;20096;-65
2021/04/01 12:37:32;;;;;;;3.45;1.55;;;;;;;12.34;52.09;101940.53;10214992;28;20056;-65
2021/04/01 12:42:33;;;;;;;3.85;1.30;;;;;;;11.73;54.42;101966.09;10211439;28;20049;-68
2021/04/01 12:47:29;;;;;;;2.92;1.50;;;;;;;11.77;54.75;101969.91;10217182;28;20192;-67
2021/04/01 12:52:26;;;;;;;3.80;1.63;;;;;;;11.95;54.95;101971.84;10214542;28;20132;-67
2021/04/01 12:57:24;;;;;;;3.45;1.42;;;;;;;11.93;55.11;101974.06;10214307;28;20046;-68
2021/04/01 13:02:43;;;;;;;4.93;1.95;;;;;;;11.63;56.42;101996.34;10215223;28;20064;-67
2021/04/01 13:08:05;;;;;;;7.10;1.50;;;;;;;11.41;57.25;102010.63;10209756;28;20817;-67
2021/04/01 13:13:01;;;;;;;5.85;1.38;;;;;;;11.09;58.54;102018.34;10221347;28;20100;-66
2021/04/01 13:17:58;;;;;;;6.10;2.08;;;;;;;10.86;58.48;102030.06;10215550;28;20099;-69
2021/04/01 13:27:52;;;;;;;9.02;2.10;;;;;;;10.89;58.58;102048.66;10218532;28;20149;-66
2021/04/01 13:42:55;;;;;;;6.18;1.85;;;;;;;10.22;57.85;102061.97;10220918;28;19950;-66
2021/04/01 13:48:04;;;;;;;4.07;1.10;;;;;;;9.93;57.34;102070.03;10218297;28;20077;-66
2021/04/01 14:13:56;;;;;;;6.60;1.25;;;;;;;10.05;56.08;102062.34;10178421;28;20556;-66
2021/04/01 14:18:52;;;;;;;3.20;0.90;;;;;;;10.04;57.10;102066.16;10180251;28;20563;-66
2021/04/01 14:23:50;;;;;;;3.60;1.10;;;;;;;9.94;56.08;102064.31;10211131;28;20087;-66
2021/04/01 14:28:46;;;;;;;4.55;1.50;;;;;;;9.80;56.35;102066.81;10221094;28;20137;-67
2021/04/01 14:33:45;;;;;;;1.67;0.70;;;;;;;9.80;57.15;102064.09;10222454;28;20041;-69
2021/04/01 14:38:49;;;;;;;4.15;0.90;;;;;;;10.17;55.49;102060.09;10216298;28;20623;-65
2021/04/01 14:43:58;;;;;;;3.70;1.08;;;;;;;9.54;56.71;102062.53;10217189;28;20046;-68
2021/04/01 14:48:56;;;;;;;2.90;0.90;;;;;;;9.96;56.55;102064.03;10218066;28;20041;-68
2021/04/01 14:53:55;;;;;;;4.97;1.10;;;;;;;9.71;55.93;102056.75;10219201;28;20061;-67
2021/04/01 14:58:52;;;;;;;3.25;1.00;;;;;;;9.95;55.59;102051.44;10224297;28;20084;-68
2021/04/01 15:03:48;;;;;;;3.75;0.93;;;;;;;10.09;55.84;102068.84;10216678;28;20468;-67
2021/04/01 15:08:45;;;;;;;4.18;1.23;;;;;;;10.30;55.64;102064.13;10200574;28;20047;-67
2021/04/01 15:13:41;;;;;;;3.10;0.85;;;;;;;10.02;56.01;102068.34;10202563;28;20060;-67
2021/04/01 15:18:37;;;;;;;3.17;0.93;;;;;;;10.27;55.14;102076.41;10212197;28;20045;-69
2021/04/01 15:23:35;;;;;;;4.43;1.10;;;;;;;9.95;55.74;102078.78;10218357;28;20274;-68
2021/04/01 15:28:31;;;;;;;2.47;0.60;;;;;;;9.95;55.60;102076.84;10214616;28;21577;-69
2021/04/01 15:33:27;;;;;;;2.78;0.68;;;;;;;9.71;55.69;102079.41;10218763;28;20073;-68
2021/04/01 15:38:23;;;;;;;2.25;0.98;;;;;;;9.81;56.60;102073.09;10214296;28;20115;-68
2021/04/01 15:43:22;;;;;;;3.83;1.35;;;;;;;9.84;56.17;102073.38;10213452;28;20041;-68
2021/04/01 15:48:18;;;;;;;3.38;1.02;;;;;;;9.82;56.59;102083.75;10213380;28;20049;-68
2021/04/01 15:53:17;;;;;;;6.43;0.95;;;;;;;9.46;57.04;102089.31;10214903;28;20059;-68
2021/04/01 15:58:14;;;;;;;4.30;0.95;;;;;;;9.42;57.40;102082.78;10219059;28;20809;-68
2021/04/01 16:03:10;;;;;;;3.60;1.10;;;;;;;9.35;57.59;102082.25;10215690;28;20126;-69
2021/04/01 16:08:06;;;;;;;4.28;1.10;;;;;;;9.35;57.95;102090.44;10212894;28;20470;-68
2021/04/01 16:13:06;;;;;;;3.35;0.95;;;;;;;9.29;57.31;102093.47;10214622;28;20045;-68
2021/04/01 16:18:07;;;;;;;4.32;1.10;;;;;;;9.35;57.84;102098.63;10212509;28;20567;-67
2021/04/01 16:23:03;;;;;;;3.05;1.17;;;;;;;9.42;57.61;102098.31;10211281;28;20159;-68
2021/04/01 16:28:00;;;;;;;3.08;1.10;;;;;;;9.38;57.44;102106.25;10215802;28;20069;-68
2021/04/01 16:32:56;;;;;;;3.55;1.00;;;;;;;9.02;59.20;102122.66;10212974;28;20046;-69
2021/04/01 16:37:54;;;;;;;4.70;1.05;;;;;;;9.22;58.99;102121.03;10215739;28;20493;-67
2021/04/01 16:42:50;;;;;;;10.60;2.97;;;;;;;9.42;59.51;102126.47;10213048;28;20499;-68
2021/04/01 16:47:46;;;;;;;5.82;1.63;;;;;;;9.30;59.93;102145.03;10214648;28;20052;-68
2021/04/01 16:53:06;;;;;;;4.72;1.50;;;;;;;9.16;60.30;102154.84;10214919;28;20073;-68
2021/04/01 16:58:03;;;;;;;8.05;1.55;;;;;;;9.26;60.10;102160.34;10164890;28;20050;-68
2021/04/01 17:02:59;;;;;;;3.20;1.23;;;;;;;8.75;62.91;102165.72;10194518;28;20099;-69
2021/04/01 17:07:58;;;;;;;4.10;1.67;;;;;;;8.96;62.81;102172.88;10219857;28;20045;-68
2021/04/01 17:12:54;;;;;;;5.97;1.73;;;;;;;8.89;63.20;102172.31;10220481;28;20056;-68
2021/04/01 17:17:55;;;;;;;7.15;2.80;;;;;;;8.58;64.03;102183.13;10222374;28;20123;-68
2021/04/01 17:22:51;;;;;;;4.43;1.50;;;;;;;8.46;64.77;102182.56;10214518;28;20046;-69
2021/04/01 17:27:47;;;;;;;3.75;1.58;;;;;;;8.60;64.50;102185.59;10221610;28;20483;-68
2021/04/01 17:32:45;;;;;;;6.65;1.42;;;;;;;8.57;64.28;102186.97;10222032;28;20045;-69
2021/04/01 17:37:42;;;;;;;6.82;1.67;;;;;;;8.67;64.47;102194.34;10219326;28;20049;-68
2021/04/01 17:42:38;;;;;;;4.50;1.35;;;;;;;8.33;65.13;102202.94;10225899;28;20049;-69
2021/04/01 17:47:34;;;;;;;4.50;1.35;;;;;;;8.36;65.59;102201.59;10217145;28;20053;-68
2021/04/01 17:52:30;;;;;;;4.53;1.52;;;;;;;8.29;65.82;102195.56;10231969;28;20156;-66
2021/04/01 17:57:26;;;;;;;4.15;1.30;;;;;;;8.17;65.90;102199.31;10204831;28;21514;-66
2021/04/01 18:02:24;;;;;;;2.58;1.40;;;;;;;8.23;66.28;102209.13;10213824;28;20041;-65
2021/04/01 18:29:10;;;;;;;3.60;1.65;;;;;;;8.29;67.35;102244.63;10187253;28;20500;-66
2021/04/01 18:34:21;;;;;;;4.40;2.00;;;;;;;8.38;66.98;102248.47;10203127;28;20041;-67
2021/04/01 18:39:13;;;;;;;5.95;3.28;;;;;;;8.25;67.46;102259.84;10194695;28;20492;-66
2021/04/01 18:44:09;;;;;;;8.27;3.87;;;;;;;8.55;66.88;102265.47;10208796;28;20041;-66
2021/04/01 18:49:15;;;;;;;6.15;3.70;;;;;;;8.27;67.84;102268.59;10193375;28;20113;-66
2021/04/01 18:54:14;;;;;;;9.75;4.05;;;;;;;8.57;67.01;102273.41;10208766;28;20575;-66
2021/04/01 18:59:15;;;;;;;6.25;3.65;;;;;;;8.60;65.32;102272.84;10209145;28;20061;-66
2021/04/01 19:04:14;;;;;;;6.88;3.60;;;;;;;8.45;66.56;102292.69;10201407;28;20049;-66
2021/04/01 19:09:18;;;;;;;4.57;2.92;;;;;;;8.53;65.70;102289.44;10199919;28;20113;-67
2021/04/01 19:24:38;;;;;;;5.13;3.50;;;;;;;8.25;65.93;102306.16;10201189;28;20042;-66
2021/04/01 19:29:35;;;;;;;5.53;2.95;;;;;;;8.36;66.78;102310.59;10206154;28;20454;-66
2021/04/01 19:34:32;;;;;;;5.75;3.60;;;;;;;8.25;66.28;102303.44;10207312;28;20084;-66
2021/04/01 19:39:29;;;;;;;5.90;2.55;;;;;;;8.30;65.89;102311.66;10193394;28;20573;-68
2021/04/01 19:44:25;;;;;;;7.10;3.22;;;;;;;8.36;66.74;102313.34;10199914;28;20045;-69
2021/04/01 19:49:27;;;;;;;5.60;3.33;;;;;;;8.42;66.72;102315.00;10194840;28;20136;-66
2021/04/01 19:54:26;;;;;;;6.50;3.42;;;;;;;8.40;66.10;102307.13;10196999;28;20153;-69
2021/04/01 19:59:24;;;;;;;4.35;2.53;;;;;;;7.94;66.71;102319.59;10211006;28;20049;-69
2021/04/01 20:04:23;;;;;;;5.93;3.10;;;;;;;8.20;66.24;102318.66;10209894;28;20045;-69
2021/04/01 20:09:20;;;;;;;8.75;2.28;;;;;;;8.33;65.77;102338.38;10206628;28;20049;-70
2021/04/01 20:14:20;;;;;;;8.27;2.50;;;;;;;8.41;65.66;102337.91;10207629;28;20100;-67
2021/04/01 20:19:18;;;;;;;5.13;2.83;;;;;;;8.18;65.81;102331.72;10198796;28;20052;-70
2021/04/01 20:24:14;;;;;;;6.18;2.55;;;;;;;8.33;65.73;102338.38;10203866;28;20141;-65
2021/04/01 20:29:11;;;;;;;4.03;2.15;;;;;;;7.84;66.11;102341.28;10210336;28;20412;-67
2021/04/01 20:34:09;;;;;;;4.55;1.92;;;;;;;8.09;65.47;102336.03;10212873;28;20521;-68
2021/04/01 20:39:05;;;;;;;4.85;2.28;;;;;;;7.82;66.67;102343.44;10200012;28;20049;-64
2021/04/01 20:44:05;;;;;;;3.92;2.10;;;;;;;7.51;67.45;102343.16;10219369;28;20407;-65
2021/04/01 20:49:02;;;;;;;4.13;2.25;;;;;;;7.65;67.64;102338.94;10209839;28;20053;-65
2021/04/01 20:53:58;;;;;;;4.13;2.35;;;;;;;7.82;67.12;102332.53;10222671;28;20076;-67
2021/04/01 20:58:54;;;;;;;6.03;2.30;;;;;;;7.79;67.05;102329.25;10222753;28;20069;-67
2021/04/01 21:03:51;;;;;;;5.07;2.40;;;;;;;7.84;66.29;102330.38;10227416;28;20430;-64
2021/04/01 21:08:48;;;;;;;4.68;2.00;;;;;;;7.70;66.68;102330.81;10223742;28;20103;-66
2021/04/01 21:13:44;;;;;;;4.70;1.90;;;;;;;7.82;66.12;102338.00;10228492;28;20041;-69
2021/04/01 21:18:41;;;;;;;4.93;2.33;;;;;;;7.99;65.67;102333.25;10223508;28;20049;-64
2021/04/01 21:23:41;;;;;;;4.13;1.88;;;;;;;8.06;65.64;102327.56;10226670;28;20123;-67
2021/04/01 21:28:37;;;;;;;4.30;2.22;;;;;;;7.76;65.73;102329.78;10227865;28;20045;-64
2021/04/01 21:33:36;;;;;;;4.57;2.47;;;;;;;7.52;66.26;102333.91;10216664;28;20049;-66
2021/04/01 21:38:33;;;;;;;3.70;2.40;;;;;;;7.69;65.67;102333.81;10218873;28;20723;-66
2021/04/01 21:43:30;;;;;;;4.45;2.60;;;;;;;7.54;66.43;102334.47;10196775;28;20069;-63
2021/04/01 21:48:27;;;;;;;3.60;2.20;;;;;;;7.61;65.47;102337.81;10202341;28;20512;-64
2021/04/01 21:53:25;;;;;;;3.97;1.92;;;;;;;7.53;65.41;102335.56;10199503;28;20073;-65
2021/04/01 21:58:22;;;;;;;3.60;1.90;;;;;;;7.70;65.46;102338.16;10208451;28;20049;-64
2021/04/01 22:03:20;;;;;;;3.92;2.20;;;;;;;7.70;65.79;102330.81;10208619;28;20084;-70
2021/04/01 22:08:21;;;;;;;3.90;2.10;;;;;;;7.85;65.83;102332.03;10219168;28;20049;-71
2021/04/01 22:13:23;;;;;;;4.38;2.10;;;;;;;7.80;65.00;102343.72;10220408;28;20100;-71
2021/04/01 22:18:21;;;;;;;3.20;2.00;;;;;;;7.83;65.20;102340.47;10219677;28;20049;-69
2021/04/01 22:23:26;;;;;;;3.58;1.92;;;;;;;7.85;64.31;102345.66;10220952;28;20060;-68
2021/04/01 22:28:23;;;;;;;3.35;1.85;;;;;;;7.79;64.75;102356.47;10204817;28;20049;-69
2021/04/01 22:33:22;;;;;;;3.60;2.30;;;;;;;7.90;64.55;102351.16;10212937;28;20045;-68
2021/04/01 22:38:31;;;;;;;4.60;2.35;;;;;;;7.84;64.43;102341.28;10197938;28;20119;-69
2021/04/01 22:43:28;;;;;;;4.35;2.30;;;;;;;7.50;64.64;102338.81;10205141;28;20060;-69
2021/04/01 22:48:24;;;;;;;5.63;2.58;;;;;;;7.55;64.50;102333.41;10203565;28;20053;-69
2021/04/01 22:53:22;;;;;;;4.90;2.35;;;;;;;7.47;64.84;102331.13;10219326;28;20048;-69
2021/04/01 22:58:23;;;;;;;5.03;2.47;;;;;;;7.34;65.51;102327.75;10215500;28;20136;-69
2021/04/01 23:03:22;;;;;;;3.53;2.25;;;;;;;7.21;65.65;102339.03;10211848;28;20057;-69
2021/04/01 23:08:19;;;;;;;4.35;2.60;;;;;;;7.21;65.54;102332.78;10210097;28;20763;-69
2021/04/01 23:13:15;;;;;;;3.90;2.58;;;;;;;7.11;66.01;102333.50;10201750;28;20117;-69
2021/04/01 23:18:11;;;;;;;5.03;2.58;;;;;;;7.05;66.54;102329.88;10212371;28;20168;-70
2021/04/01 23:23:09;;;;;;;4.75;2.60;;;;;;;6.94;66.70;102336.31;10211394;28;20854;-69
2021/04/01 23:28:05;;;;;;;4.50;2.60;;;;;;;6.82;67.40;102325.53;10214257;28;20061;-69
2021/04/01 23:33:05;;;;;;;4.68;3.08;;;;;;;6.71;68.05;102318.34;10212790;28;20137;-70
2021/04/01 23:38:02;;;;;;;4.28;2.50;;;;;;;6.59;67.63;102332.06;10206906;28;20050;-70
2021/04/01 23:42:59;;;;;;;5.20;3.28;;;;;;;6.49;67.78;102335.44;10210375;28;20136;-69
2021/04/01 23:47:55;;;;;;;4.10;2.65;;;;;;;6.36;68.38;102341.25;10216935;28;20077;-69
2021/04/01 23:52:51;;;;;;;5.43;3.25;;;;;;;6.28;68.95;102330.78;10216188;28;20041;-69
2021/04/01 23:57:47;;;;;;;5.47;3.53;;;;;;;6.20;69.14;102339.38;10216296;28;20049;-69
